Hauptseite
METAR-TAF:

METAR-TAF

Flughäfen :

Xi’an, China

Flughafen Xi’an-Xianyang

Breite: 34-26N, Länge: 108-45E, Höhe: 479 m

Beobachtung

Neuester Wetterbericht von vor 30 Minuten, um 21:00 UTC
Wind 2 kt aus West
Temperatur 10°C
Luftfeuchtigkeit 82%
Luftdruck 1008 hPa
Sichtweite 10 km oder mehr
keine Wolken unter 1500 m und keine Kumulonimbus oder Gewitterwolken

METAR: ZLXY 292100Z 26001MPS CAVOK 10/07 Q1008 NOSIG

Zeit: 05:30 (21:30 UTC)

Prognose

Neuester Wetterbericht von vor 6 Stunden und 8 Minuten, um 15:22 UTC
Gültige Prognose vom 29 um 18 UTC bis 30 um 18 UTC
Wind 6 kt aus West/Nordwest
Sichtweite: 5000 m
trockener Dunst

TAF: ZLXY 291522Z 2918/3018 30003MPS 5000 HZ NSC TX30/3008Z TN11/2922Z

Wetterbeobachtungen und Prognosen von mehr als 4000 Flughäfen (METAR und TAF Bericht).

Die verfügbaren Stationen werden durch gelbe und rote Markierungen auf der Karte dargestellt.

Führen Sie die Maus auf sie, um den Namen der Station zu sehen.

Darauf klicken, um die Beobachtung von Wetterbeobachtungen und Prognosen zu sehen.

Um die Karte zu ändern : klicken Sie auf den grünen Tasten mit einem schwarzen Kreuz Zum Vergrößern, auf den grünen Button mit einem Gedankenstrich zu verkleinern, oder auf die grünen Pfeile für benachbarte Karten.


METAR-TAF: